ETNLEDDV

Guest
Details From ETNL - Laage
To EDDV - Hannover
Flight Number -
Tags Generated
Created
Modified
Stats Distance 128 nm / 237 km
Max Altitude 0 ft / 0 m
Waypoints 2
Social Downloads 1
Likes 0
Share VATSIM

Download

Looking for another format? Having issues loading an existing format? Contact us
Advertisement - Login to hide

Notes

Generated

Route

ETNL EDDV

ID Type Via Altitude Latitude Longitude Leg Dist Tot Dist Heading (true) Name
O ETNL APT - 0 ft / 0 m 53.91967˚ 12.26033˚ - 0 nm - -
O EDDV APT - 0 ft / 0 m 52.46820˚ 9.64854˚ 128 nm 128 nm 228° / 226° -

Altitude Profile

Advertisement - Login to hide

ETNL

Details ICAO ETNL (RLG)
Name Laage
Region Germany - Military
Timezone Europe/Berlin (UTC+2.0)
Stats Elevation 138 ft / 42 m (AMSL)
Location 53.918084° 12.279250°
Runways 1
Magnetic Variation 3.580° E

METAR

ETNL 232020Z 08005KT 9999 FEW260 15/06 Q1025 BLU+

Decode

TAF

Not found

Departure Runways

ID Width Length Bearing (true) Bearing (mag) Surface Threshold Offset Overrun Length
10 148 ft / 45 m 8,213 ft / 2,503 m 98.07° 94.49° Concrete 0 ft / 0 m 1,001 ft / 305 m
28 148 ft / 45 m 8,213 ft / 2,503 m 278.10° 274.52° Concrete 0 ft / 0 m 1,001 ft / 305 m

EDDV

Details ICAO EDDV (HAJ)
Name Hannover
Region Germany - Civil
Timezone Europe/Berlin (UTC+2.0)
Stats Elevation 183 ft / 56 m (AMSL)
Location 52.462095° 9.686794°
Runways 3
Magnetic Variation 2.741° E

METAR

EDDV 232020Z 06009KT CAVOK 18/05 Q1022 NOSIG

Decode

TAF

TAF EDDV 231700Z 2318/2418 06008KT CAVOK BECMG 2406/2408 09013KT TEMPO 2410/2418 09015G25KT

Decode

Destination Runways

ID Width Length Bearing (true) Bearing (mag) Surface Threshold Offset Overrun Length
09C 75 ft / 23 m 2,532 ft / 772 m 92.55° 89.81° Asphalt 213 ft / 65 m 0 ft / 0 m
09L 148 ft / 45 m 12,429 ft / 3,788 m 92.57° 89.83° Concrete 984 ft / 300 m 0 ft / 0 m
09R 148 ft / 45 m 7,653 ft / 2,333 m 92.60° 89.86° Concrete 0 ft / 0 m 0 ft / 0 m
27C 75 ft / 23 m 2,532 ft / 772 m 272.56° 269.82° Asphalt 541 ft / 165 m 0 ft / 0 m
27L 148 ft / 45 m 7,653 ft / 2,333 m 272.62° 269.88° Concrete 0 ft / 0 m 0 ft / 0 m
27R 148 ft / 45 m 12,429 ft / 3,788 m 272.61° 269.87° Concrete 984 ft / 300 m 0 ft / 0 m

Approach Navaids

Runway Type Ident Frequency Range Bearing (true) Bearing (mag) Slope Elevation
09L Localiser IHNE 108.30 MHz 18 nm / 33 km 92.60° 89.86° - 167 ft / 51 m (AMSL)
09L Glidescope IHNE 108.30 MHz 10 nm / 19 km 92.60° 89.86° 3.00° 167 ft / 51 m (AMSL)
09R Localiser IHSE 108.70 MHz 18 nm / 33 km 92.60° 89.86° - 172 ft / 52 m (AMSL)
09R Glidescope IHSE 108.70 MHz 10 nm / 19 km 92.60° 89.86° 3.00° 172 ft / 52 m (AMSL)
27L Localiser IHSW 109.50 MHz 18 nm / 33 km 272.60° 269.86° - 179 ft / 55 m (AMSL)
27L Glidescope IHSW 109.50 MHz 10 nm / 19 km 272.60° 269.86° 3.00° 179 ft / 55 m (AMSL)
27R Localiser IHNW 108.90 MHz 18 nm / 33 km 272.60° 269.86° - 169 ft / 52 m (AMSL)
27R Glidescope IHNW 108.90 MHz 10 nm / 19 km 272.60° 269.86° 3.00° 169 ft / 52 m (AMSL)